M I D A S
Marine Information and Data Acquisition System
Tripno 1543 of the Zeeleeuw from 2008-08-25 07:15:02 to 2008-08-25 13:13:50
Back to CruiseResearch ActivitiesStationsMapUnderway DataData graphs

EquipmentUnitsComment
TimeDGPSUTC
LatitudeDGPSDM.mWGS84
LongitudeDGPSDM.mWGS84
HeadingGyrodeg 
SOGDGPSknotsSpeed over ground
COGDGPSdegCourse over ground
DepthEcho soundermeters200 kHz
Missing or incorrect values are displayed as -999
Navigation data collected by the RV Zeeleeuw from 2008-08-25 07:15:39 to 2008-08-25 13:24:30
Time Latitude Longitude Heading SOG COG Depth
2008-08-25 07:16:44 51°13.637 2°55.995 111.8 3.7 293 -999
2008-08-25 07:17:44 51°13.664 2°55.886 111.3 4.7 292 -999
2008-08-25 07:18:44 51°13.685 2°55.79 98.3 3 285 -999
2008-08-25 07:19:43 51°13.695 2°55.767 61.2 0.7 32 13.3
2008-08-25 07:20:44 51°13.697 2°55.758 21 2.3 5 -999
2008-08-25 07:21:42 51°13.77 2°55.7 327.8 7 328 12
2008-08-25 07:22:40 51°13.88 2°55.605 334.4 8.3 333 12.4
2008-08-25 07:23:40 51°14.007 2°55.507 334.2 8.5 335 12.7
2008-08-25 07:24:40 51°14.133 2°55.405 333.8 8.5 333 13
2008-08-25 07:25:40 51°14.25 2°55.27 317.9 9.1 317 12.5
2008-08-25 07:26:40 51°14.36 2°55.077 310.6 10.6 311 13.1
2008-08-25 07:27:40 51°14.494 2°54.867 307.8 11.7 308 12.1
2008-08-25 07:28:40 51°14.603 2°54.624 300 10.7 304 12.1
2008-08-25 07:29:40 51°14.688 2°54.386 290.5 10.2 294 12.3
2008-08-25 07:30:40 51°14.755 2°54.14 287.7 10.1 292 12.1
2008-08-25 07:31:40 51°14.8 2°53.887 275.7 10 279 11.8
2008-08-25 07:32:40 51°14.819 2°53.624 272.8 10 275 12.6
2008-08-25 07:33:40 51°14.842 2°53.36 276.5 10.1 279 12.2
2008-08-25 07:34:40 51°14.87 2°53.097 276.6 10.1 279 12.3
2008-08-25 07:35:40 51°14.897 2°52.834 275 10 278 12.1
2008-08-25 07:36:40 51°14.924 2°52.572 276.6 10 280 12.1
2008-08-25 07:37:40 51°14.948 2°52.305 276.6 10.7 279 12.2
2008-08-25 07:38:40 51°14.979 2°52.013 276.1 11.4 278 12.7
2008-08-25 07:39:40 51°15.004 2°51.71 274.6 11.6 279 13.1
2008-08-25 07:40:40 51°15.037 2°51.406 277.6 11.6 280 13.6
2008-08-25 07:41:40 51°15.063 2°51.104 274.1 11.5 277 13.9
2008-08-25 07:42:40 51°15.097 2°50.804 280.8 11.6 284 14
2008-08-25 07:43:40 51°15.155 2°50.508 284.4 11.6 287 14.5
2008-08-25 07:44:40 51°15.212 2°50.212 283.8 11.7 287 14.7
2008-08-25 07:45:41 51°15.267 2°49.911 283.3 11.7 286 14.5
2008-08-25 07:46:40 51°15.315 2°49.617 281.7 11.6 287 14.7
2008-08-25 07:47:40 51°15.384 2°49.326 287.2 11.7 289 14.8
2008-08-25 07:48:40 51°15.449 2°49.033 286.4 11.7 290 14.4
2008-08-25 07:49:40 51°15.513 2°48.742 285.8 11.6 289 12.4
2008-08-25 07:50:40 51°15.574 2°48.448 285.3 11.8 289 12.3
2008-08-25 07:51:40 51°15.635 2°48.151 285.7 11.8 289 13.2
2008-08-25 07:52:40 51°15.698 2°47.854 285.9 11.8 289 14.8
2008-08-25 07:53:40 51°15.758 2°47.558 282.4 11.6 286 16.3
2008-08-25 07:54:41 51°15.813 2°47.258 284.6 11.7 288 17.7
2008-08-25 07:55:40 51°15.878 2°46.971 286 11.7 290 18.3
2008-08-25 07:56:40 51°15.944 2°46.679 286.6 11.7 291 17.8
2008-08-25 07:57:40 51°16.013 2°46.391 290.5 11.7 296 15.5
2008-08-25 07:58:40 51°16.111 2°46.118 296.8 11.9 301 13.2
2008-08-25 07:59:40 51°16.213 2°45.844 296.5 12 300 12.3
2008-08-25 08:00:41 51°16.312 2°45.562 294.8 12 299 12.2
2008-08-25 08:01:41 51°16.412 2°45.285 294.8 12 299 12.6
2008-08-25 08:02:40 51°16.505 2°45.009 296.9 12 300 12.9
2008-08-25 08:03:40 51°16.607 2°44.733 296.4 12 300 13
2008-08-25 08:04:40 51°16.705 2°44.454 295.4 12.1 301 15.4
2008-08-25 08:05:40 51°16.809 2°44.18 295.8 12.1 300 16.6
2008-08-25 08:06:40 51°16.914 2°43.905 297.8 12 301 16.6
2008-08-25 08:07:40 51°17.02 2°43.633 298.3 12.1 301 16
2008-08-25 08:08:41 51°17.13 2°43.358 300.6 12.1 304 15.3
2008-08-25 08:09:41 51°17.244 2°43.095 301.4 12 305 14.5
2008-08-25 08:10:40 51°17.358 2°42.841 302.7 11.9 308 10.7
2008-08-25 08:11:40 51°17.487 2°42.592 303.1 12.1 309 21.9
2008-08-25 08:12:41 51°17.614 2°42.336 303.2 12 308 24.4
2008-08-25 08:13:40 51°17.735 2°42.088 305.5 12.1 310 25.1
2008-08-25 08:14:40 51°17.871 2°41.848 306.5 12.1 311 25.1
2008-08-25 08:15:40 51°17.998 2°41.596 304 12.1 307 24.6
2008-08-25 08:16:40 51°18.123 2°41.344 306.3 12.1 309 23.1
2008-08-25 08:17:41 51°18.248 2°41.088 304.1 12 308 21.2
2008-08-25 08:18:40 51°18.372 2°40.849 302.6 11.8 306 14.1
2008-08-25 08:19:40 51°18.486 2°40.592 299.9 11.8 304 17.4
2008-08-25 08:20:41 51°18.6 2°40.33 299.2 11.8 304 21.8
2008-08-25 08:21:41 51°18.714 2°40.068 300.8 12.2 307 25.5
2008-08-25 08:22:40 51°18.838 2°39.818 301.7 12.2 307 25.1
2008-08-25 08:23:40 51°18.947 2°39.551 293.7 11.9 299 25.7
2008-08-25 08:24:40 51°19.041 2°39.272 294.7 11.9 299 27.8
2008-08-25 08:25:41 51°19.141 2°38.992 295.8 11.9 299 29.2
2008-08-25 08:26:40 51°19.241 2°38.722 297.5 12 302 28.8
2008-08-25 08:27:40 51°19.344 2°38.447 298 12.2 301 26.3
2008-08-25 08:28:41 51°19.452 2°38.169 299.8 12.1 303 24.2
2008-08-25 08:29:40 51°19.558 2°37.903 299.2 12 303 22.8
2008-08-25 08:30:40 51°19.667 2°37.638 299.7 11.3 303 22.1
2008-08-25 08:31:40 51°19.764 2°37.404 298.3 10.3 303 22.6
2008-08-25 08:32:40 51°19.849 2°37.2 299.2 8.2 306 22.4
2008-08-25 08:33:40 51°19.926 2°37.029 298.9 7.8 306 21.9
2008-08-25 08:34:41 51°19.997 2°36.915 324.4 4.6 338 22.6
2008-08-25 08:35:41 51°20.051 2°36.897 327.1 2.6 356 24.1
2008-08-25 08:36:40 51°20.083 2°36.895 315.4 1.6 15 23.7
2008-08-25 08:37:40 51°20.105 2°36.911 311.3 1.4 31 23
2008-08-25 08:38:40 51°20.124 2°36.932 310.9 1.3 36 23
2008-08-25 08:39:41 51°20.143 2°36.957 318.8 1.5 44 22.5
2008-08-25 08:40:40 51°20.16 2°36.985 329.5 1.4 48 22.4
2008-08-25 08:41:41 51°20.201 2°37.006 10.1 3.9 20 22.6
2008-08-25 08:42:41 51°20.24 2°37.106 98.5 4.9 95 23.2
2008-08-25 08:43:40 51°20.188 2°37.168 192.4 4.5 192 23.2
2008-08-25 08:44:41 51°20.106 2°37.094 216.7 6.3 217 23
2008-08-25 08:45:40 51°20.028 2°36.979 224.1 5.6 226 23
2008-08-25 08:46:40 51°20.01 2°36.904 264.9 1.9 290 22.8
2008-08-25 08:47:40 51°20.032 2°36.881 295.9 1.6 349 23.4
2008-08-25 08:48:40 51°20.056 2°36.882 298.4 1.3 13 24.3
2008-08-25 08:49:41 51°20.077 2°36.897 304 1.5 20 24.5
2008-08-25 08:50:41 51°20.103 2°36.902 308.2 1.5 10 22.1
2008-08-25 08:51:41 51°20.127 2°36.914 310.5 1.6 18 22.9
2008-08-25 08:52:40 51°20.149 2°36.871 258.7 3.2 265 23.3
2008-08-25 08:53:40 51°20.091 2°36.732 232.9 9 236 23.1
2008-08-25 08:54:40 51°19.997 2°36.507 235.2 10.8 237 22.2
2008-08-25 08:55:40 51°19.9 2°36.282 236.5 7.6 243 22
2008-08-25 08:56:40 51°19.925 2°36.171 311 3.6 328 22
2008-08-25 08:57:40 51°19.969 2°36.139 313.8 2.4 344 20.9
2008-08-25 08:58:41 51°20.001 2°36.129 304.9 1.7 354 20.8
2008-08-25 08:59:40 51°20.031 2°36.119 311.5 1.9 351 20.9
2008-08-25 09:00:40 51°20.061 2°36.117 309.7 1.6 2 20.9
2008-08-25 09:01:41 51°20.085 2°36.122 306.4 1.4 12 21.2
2008-08-25 09:02:40 51°20.106 2°36.137 303.9 1.5 35 21.2
2008-08-25 09:03:40 51°20.123 2°36.165 318.5 1.4 54 21.3
2008-08-25 09:04:40 51°20.134 2°36.196 337.5 1.2 63 21.3
2008-08-25 09:05:41 51°20.142 2°36.225 354.6 1.1 67 21.1
2008-08-25 09:06:40 51°20.15 2°36.251 6.8 1 60 21
2008-08-25 09:07:41 51°20.159 2°36.274 11.3 1.1 63 21.3
2008-08-25 09:08:41 51°20.168 2°36.297 11.7 1.2 49 21.5
2008-08-25 09:09:40 51°20.184 2°36.319 3.8 1.4 38 21.5
2008-08-25 09:10:40 51°20.225 2°36.358 41.5 4 45 21.3
2008-08-25 09:11:41 51°20.239 2°36.459 114.4 4 105 21.5
2008-08-25 09:12:40 51°20.2 2°36.554 136.7 4.6 126 22.5
2008-08-25 09:13:40 51°20.154 2°36.661 134.9 5 126 22.9
2008-08-25 09:14:41 51°20.129 2°36.757 104.3 3.8 89 21.7
2008-08-25 09:15:41 51°20.151 2°36.852 58.3 3.9 52 23.2
2008-08-25 09:16:41 51°20.195 2°36.894 7.3 2.1 19 22.3
2008-08-25 09:17:40 51°20.213 2°36.911 331.5 1.2 39 23.1
2008-08-25 09:18:41 51°20.228 2°36.933 320.1 1.2 48 21.3
2008-08-25 09:19:40 51°20.241 2°36.955 318.2 1.2 47 22.5
2008-08-25 09:20:41 51°20.253 2°36.98 323.6 1.2 55 22.9
2008-08-25 09:21:41 51°20.263 2°37.006 333.8 1.2 56 22.8
2008-08-25 09:22:40 51°20.284 2°37.019 320 1.9 353 22.4
2008-08-25 09:23:41 51°20.31 2°36.983 273.5 2.4 295 23.4
2008-08-25 09:24:40 51°20.302 2°36.926 225 2.3 234 23.3
2008-08-25 09:25:41 51°20.277 2°36.878 227.1 1.8 234 21.9
2008-08-25 09:26:40 51°20.265 2°36.851 226.1 0.9 230 23
2008-08-25 09:27:41 51°20.263 2°36.838 230.7 0.3 293 23.2
2008-08-25 09:28:40 51°20.27 2°36.837 240.9 0.6 14 23.1
2008-08-25 09:29:40 51°20.284 2°36.844 256.2 1 21 21.9
2008-08-25 09:30:41 51°20.303 2°36.86 281.2 1.2 34 22.6
2008-08-25 09:31:40 51°20.32 2°36.879 302.8 1.1 38 21.4
2008-08-25 09:32:42 51°20.336 2°36.899 319.1 1.2 37 22.9
2008-08-25 09:33:41 51°20.352 2°36.917 330.1 1.4 20 23.5
2008-08-25 09:34:40 51°20.38 2°36.911 303.9 1.9 337 23
2008-08-25 09:35:41 51°20.404 2°36.88 274.2 1.7 309 22.6
2008-08-25 09:36:40 51°20.415 2°36.843 245.4 1.2 276 22.6
2008-08-25 09:37:41 51°20.406 2°36.824 197.6 1 184 22.2
2008-08-25 09:38:40 51°20.386 2°36.846 156 1.8 128 22
2008-08-25 09:39:41 51°20.369 2°36.886 152.2 1.6 120 22.2
2008-08-25 09:40:40 51°20.355 2°36.919 158.9 1.4 127 23.2
2008-08-25 09:41:41 51°20.342 2°36.946 163.9 1.2 129 23.4
2008-08-25 09:42:41 51°20.329 2°36.97 165.8 1.3 134 23.3
2008-08-25 09:43:41 51°20.315 2°36.997 164.7 1.3 127 22.2
2008-08-25 09:44:41 51°20.303 2°37.021 166.8 1.1 130 21.1
2008-08-25 09:45:40 51°20.291 2°37.043 169.6 1.1 135 22.2
2008-08-25 09:46:41 51°20.277 2°37.063 168.8 1.1 133 23
2008-08-25 09:47:41 51°20.265 2°37.085 170.5 1 129 23.2
2008-08-25 09:48:41 51°20.261 2°37.103 169.7 0.7 93 22.5
2008-08-25 09:49:41 51°20.265 2°37.123 162 0.9 62 22.5
2008-08-25 09:50:40 51°20.271 2°37.144 151.4 1 55 23
2008-08-25 09:51:41 51°20.28 2°37.164 141.9 0.9 55 20.5
2008-08-25 09:52:41 51°20.29 2°37.182 136.2 0.8 48 22.3
2008-08-25 09:53:40 51°20.302 2°37.2 131.2 1.1 42 22.6
2008-08-25 09:54:40 51°20.314 2°37.219 126.2 0.9 46 23.1
2008-08-25 09:55:40 51°20.326 2°37.237 125.6 1 43 22.4
2008-08-25 09:56:41 51°20.337 2°37.254 126.3 0.9 43 21.5
2008-08-25 09:57:40 51°20.345 2°37.277 135.8 1.2 87 22.3
2008-08-25 09:58:40 51°20.336 2°37.308 160.6 1.4 131 23
2008-08-25 09:59:41 51°20.317 2°37.327 183.1 1.3 161 22.8
2008-08-25 10:00:41 51°20.292 2°37.32 213.3 1.9 211 21.7
2008-08-25 10:01:41 51°20.277 2°37.268 253.9 2.6 264 22.7
2008-08-25 10:02:42 51°20.274 2°37.191 252.5 3 261 21.8
2008-08-25 10:03:41 51°20.253 2°37.121 231.9 3 235 22.3
2008-08-25 10:04:42 51°20.226 2°37.075 211.8 1.5 213 22.3
2008-08-25 10:05:41 51°20.219 2°37.077 179.7 0.5 92 22.1
2008-08-25 10:06:41 51°20.222 2°37.096 154.6 0.7 67 22.6
2008-08-25 10:07:41 51°20.229 2°37.116 141 1 56 22
2008-08-25 10:08:41 51°20.238 2°37.134 138.7 0.8 49 22.5
2008-08-25 10:09:42 51°20.247 2°37.15 137.5 0.9 43 22.5
2008-08-25 10:10:42 51°20.258 2°37.167 135.4 0.9 45 22.2
2008-08-25 10:11:42 51°20.269 2°37.183 135.4 0.9 38 20.3
2008-08-25 10:12:41 51°20.273 2°37.205 146.5 1.2 109 21.9
2008-08-25 10:13:42 51°20.254 2°37.227 178.4 1.4 161 22.1
2008-08-25 10:14:41 51°20.228 2°37.225 207.5 1.8 202 20.2
2008-08-25 10:15:42 51°20.208 2°37.192 237.4 1.5 240 22
2008-08-25 10:16:41 51°20.2 2°37.16 239.7 1 251 22.3
2008-08-25 10:17:41 51°20.195 2°37.148 218.3 0.1 124 21.9
2008-08-25 10:18:42 51°20.198 2°37.16 187.8 0.7 55 21.9
2008-08-25 10:19:41 51°20.207 2°37.177 161.8 0.8 47 21.7
2008-08-25 10:20:42 51°20.217 2°37.191 140.4 0.7 45 22.2
2008-08-25 10:21:41 51°20.201 2°37.218 168.3 3.6 171 22.2
2008-08-25 10:22:42 51°20.155 2°37.182 227.6 2.2 230 22.1
2008-08-25 10:23:41 51°20.15 2°37.148 259.9 1 293 22
2008-08-25 10:24:42 51°20.163 2°37.137 288.6 1 354 22
2008-08-25 10:25:42 51°20.179 2°37.143 314.8 0.9 22 21.9
2008-08-25 10:26:41 51°20.191 2°37.153 331.5 0.8 27 22.2
2008-08-25 10:27:42 51°20.202 2°37.166 340 0.7 37 21.5
2008-08-25 10:28:41 51°20.21 2°37.178 339.3 0.8 42 21.9
2008-08-25 10:29:42 51°20.218 2°37.193 336.9 0.7 52 22.4
2008-08-25 10:30:41 51°20.224 2°37.206 337.6 0.6 51 21.8
2008-08-25 10:31:42 51°20.23 2°37.222 337.5 0.7 60 20.5
2008-08-25 10:32:41 51°20.236 2°37.236 337.1 0.7 53 21.9
2008-08-25 10:33:41 51°20.241 2°37.251 341.9 0.7 63 22.5
2008-08-25 10:34:42 51°20.247 2°37.267 342.5 0.7 60 22.3
2008-08-25 10:35:41 51°20.254 2°37.281 341.5 0.7 50 22.2
2008-08-25 10:36:42 51°20.262 2°37.296 338.8 0.7 46 22.3
2008-08-25 10:37:41 51°20.27 2°37.31 336.3 0.7 46 21.6
2008-08-25 10:38:42 51°20.279 2°37.322 333.8 0.8 42 20.9
2008-08-25 10:39:41 51°20.29 2°37.335 331.9 0.8 43 21.7
2008-08-25 10:40:42 51°20.301 2°37.348 332.8 1.1 14 22.7
2008-08-25 10:41:42 51°20.326 2°37.341 324.4 2 341 22.2
2008-08-25 10:42:42 51°20.359 2°37.312 314.3 2.4 324 22.5
2008-08-25 10:43:42 51°20.386 2°37.281 308.6 1.6 322 22.7
2008-08-25 10:44:41 51°20.404 2°37.269 311.8 1 344 22.7
2008-08-25 10:45:42 51°20.419 2°37.272 318.8 0.9 17 23.3
2008-08-25 10:46:42 51°20.43 2°37.284 330.9 0.7 41 23
2008-08-25 10:47:42 51°20.436 2°37.297 336.7 0.6 56 21.8
2008-08-25 10:48:41 51°20.447 2°37.308 350.5 1.2 7 21.6
2008-08-25 10:49:41 51°20.464 2°37.309 343.5 1 358 22.8
2008-08-25 10:50:41 51°20.478 2°37.311 334.7 0.8 19 23
2008-08-25 10:51:41 51°20.489 2°37.316 330.1 0.7 28 22.5
2008-08-25 10:52:41 51°20.5 2°37.323 325.8 0.6 26 21.4
2008-08-25 10:53:41 51°20.51 2°37.333 328 0.8 36 22.5
2008-08-25 10:54:41 51°20.526 2°37.327 313.8 2.4 321 22.8
2008-08-25 10:55:41 51°20.534 2°37.243 240.9 3.6 243 23
2008-08-25 10:56:41 51°20.473 2°37.196 195.9 4.9 198 22.5
2008-08-25 10:57:41 51°20.4 2°37.122 221 5.7 223 21.4
2008-08-25 10:58:41 51°20.32 2°36.994 222.7 6.4 225 20.4
2008-08-25 10:59:41 51°20.256 2°36.904 204.6 3.7 205 20.8
2008-08-25 11:00:41 51°20.208 2°36.897 184.9 2.4 183 21.9
2008-08-25 11:01:41 51°20.171 2°36.897 186.9 2 181 20.7
2008-08-25 11:02:41 51°20.14 2°36.89 197.3 1.7 192 21.6
2008-08-25 11:03:41 51°20.117 2°36.892 181.3 1.1 157 21.5
2008-08-25 11:04:41 51°20.108 2°36.904 176.4 0.5 113 21.1
2008-08-25 11:05:41 51°20.109 2°36.918 165.8 0.6 68 22.3
2008-08-25 11:06:41 51°20.115 2°36.933 148.4 0.8 45 22
2008-08-25 11:07:41 51°20.123 2°36.945 133.5 0.6 36 20.8
2008-08-25 11:08:41 51°20.123 2°36.967 142 2 132 21.5
2008-08-25 11:09:41 51°20.079 2°36.975 198.1 3.1 200 22.1
2008-08-25 11:10:41 51°20.051 2°36.897 259.2 3.1 268 22.8
2008-08-25 11:11:41 51°20.06 2°36.845 280.8 1.3 306 21.6
2008-08-25 11:12:41 51°20.07 2°36.847 312.5 0.6 48 21.9
2008-08-25 11:13:41 51°20.075 2°36.857 334.5 0.4 50 21.8
2008-08-25 11:14:41 51°20.079 2°36.867 346.1 0.5 74 21.7
2008-08-25 11:15:41 51°20.081 2°36.877 352.8 0.4 66 21.8
2008-08-25 11:16:41 51°20.086 2°36.885 346.7 0.3 38 20.9
2008-08-25 11:17:41 51°20.092 2°36.893 339.4 0.4 36 19.6
2008-08-25 11:18:41 51°20.095 2°36.903 334.9 0.4 77 19.3
2008-08-25 11:19:41 51°20.097 2°36.915 336.7 0.5 74 21.1
2008-08-25 11:20:41 51°20.101 2°36.928 339.6 0.5 62 22.7
2008-08-25 11:21:41 51°20.105 2°36.939 342.1 0.4 56 23.6
2008-08-25 11:22:41 51°20.111 2°36.948 338.1 0.4 35 21
2008-08-25 11:23:41 51°20.13 2°36.937 312 1.9 318 21.3
2008-08-25 11:24:41 51°20.145 2°36.881 268.3 2.5 277 21.7
2008-08-25 11:25:41 51°20.131 2°36.821 217.2 2.4 222 21.4
2008-08-25 11:26:41 51°20.093 2°36.81 176 2 172 22.1
2008-08-25 11:27:41 51°20.074 2°36.824 160.1 1 143 21.2
2008-08-25 11:28:41 51°20.068 2°36.836 160.6 0.4 94 21
2008-08-25 11:29:41 51°20.072 2°36.846 156.8 0.6 47 21.4
2008-08-25 11:30:41 51°20.076 2°36.856 144.3 0.4 85 21.7
2008-08-25 11:31:41 51°20.079 2°36.867 143.1 0.5 50 21.5
2008-08-25 11:32:41 51°20.082 2°36.877 140.8 0.4 47 22
2008-08-25 11:33:41 51°20.087 2°36.884 142.1 0.5 23 21.1
2008-08-25 11:34:41 51°20.092 2°36.891 139 0.4 62 20.6
2008-08-25 11:35:41 51°20.095 2°36.9 138.9 0.5 59 19
2008-08-25 11:36:41 51°20.099 2°36.908 140.5 0.3 45 20.6
2008-08-25 11:37:41 51°20.103 2°36.914 143.3 0.4 82 21.7
2008-08-25 11:38:41 51°20.084 2°36.957 120 4 115 23
2008-08-25 11:39:41 51°20.043 2°37.128 112.8 9.2 115 21.3
2008-08-25 11:40:41 51°19.953 2°37.364 123.5 11 126 21.8
2008-08-25 11:41:41 51°19.85 2°37.595 122.9 10.4 127 21.6
2008-08-25 11:42:41 51°19.749 2°37.813 123.5 9.4 129 21.4
2008-08-25 11:43:41 51°19.692 2°37.946 124.1 4.2 129 21.3
2008-08-25 11:44:41 51°19.651 2°38.025 125.3 4.1 127 21.8
2008-08-25 11:45:41 51°19.613 2°38.168 101.6 7.3 104 19.9
2008-08-25 11:46:41 51°19.545 2°38.341 121.9 8.1 121 22.5
2008-08-25 11:47:41 51°19.468 2°38.523 121.5 8.4 123 23.9
2008-08-25 11:48:41 51°19.39 2°38.708 121.3 8.4 125 26
2008-08-25 11:49:41 51°19.313 2°38.895 122.2 8.4 124 27.3
2008-08-25 11:50:41 51°19.235 2°39.082 121.8 8.4 125 27.4
2008-08-25 11:51:41 51°19.159 2°39.27 122.2 8.4 123 26.7
2008-08-25 11:52:41 51°19.084 2°39.46 122.9 8.4 122 25.2
2008-08-25 11:53:41 51°19.007 2°39.647 122.3 8.4 123 23.6
2008-08-25 11:54:41 51°18.93 2°39.834 123 8.4 125 22.9
2008-08-25 11:55:41 51°18.851 2°40.018 122.2 8.4 124 22.1
2008-08-25 11:56:41 51°18.774 2°40.201 122.1 8.3 122 22.1
2008-08-25 11:57:41 51°18.696 2°40.381 121.2 8.2 124 20
2008-08-25 11:58:41 51°18.62 2°40.556 121.9 8 126 16.3
2008-08-25 11:59:41 51°18.545 2°40.733 121.8 8.2 124 16.9
2008-08-25 12:00:41 51°18.465 2°40.907 121.2 8.1 126 14.7
2008-08-25 12:01:41 51°18.387 2°41.084 122.5 8.1 127 17.2
2008-08-25 12:02:41 51°18.311 2°41.258 122.1 8.2 127 19.6
2008-08-25 12:03:41 51°18.229 2°41.438 121.9 8.4 127 21.1
2008-08-25 12:04:41 51°18.145 2°41.615 125.6 8.4 129 22.1
2008-08-25 12:05:41 51°18.057 2°41.788 127 8.4 132 22.7
2008-08-25 12:06:41 51°17.969 2°41.96 127.1 8.3 130 23.1
2008-08-25 12:07:41 51°17.881 2°42.13 126.8 8.3 129 23.1
2008-08-25 12:08:41 51°17.793 2°42.302 126.8 8.3 130 23
2008-08-25 12:09:41 51°17.706 2°42.473 126.1 8.4 129 22.2
2008-08-25 12:10:41 51°17.618 2°42.645 126.2 8.3 128 20.8
2008-08-25 12:11:41 51°17.532 2°42.816 126.4 8.2 127 13.1
2008-08-25 12:12:41 51°17.447 2°42.983 126.6 7.9 130 9.5
2008-08-25 12:13:41 51°17.363 2°43.147 126.6 8.1 128 10.9
2008-08-25 12:14:41 51°17.277 2°43.311 127 8.1 132 11.5
2008-08-25 12:15:41 51°17.19 2°43.479 125.6 8.3 129 14.1
2008-08-25 12:16:41 51°17.103 2°43.649 126.1 8.3 129 13.9
2008-08-25 12:17:41 51°17.015 2°43.819 125.8 8.3 131 14.3
2008-08-25 12:18:41 51°16.928 2°43.991 124.9 8.3 131 14.5
2008-08-25 12:19:41 51°16.839 2°44.163 126.2 8.4 130 14.3
2008-08-25 12:20:41 51°16.75 2°44.337 125.8 8.5 131 13.7
2008-08-25 12:21:41 51°16.661 2°44.512 125.6 8.5 129 12
2008-08-25 12:22:41 51°16.573 2°44.687 125.5 8.5 132 10.6
2008-08-25 12:23:41 51°16.487 2°44.863 121.8 8.4 122 9.4
2008-08-25 12:24:41 51°16.413 2°45.053 118.3 8.5 121 10.6
2008-08-25 12:25:41 51°16.341 2°45.246 117.5 8.4 122 10.2
2008-08-25 12:26:41 51°16.271 2°45.44 116.5 8.4 120 9.7
2008-08-25 12:27:41 51°16.202 2°45.634 116.4 8.4 121 9.8
2008-08-25 12:28:41 51°16.134 2°45.827 116.3 8.3 124 10.6
2008-08-25 12:29:41 51°16.067 2°46.019 113.4 8.2 115 11.3
2008-08-25 12:30:41 51°16.032 2°46.228 99 8.1 101 12.6
2008-08-25 12:31:41 51°16.005 2°46.439 98.7 8.1 101 13
2008-08-25 12:32:41 51°15.978 2°46.648 99.3 8 102 14.7
2008-08-25 12:33:41 51°15.951 2°46.857 99.6 8 102 15.5
2008-08-25 12:34:41 51°15.92 2°47.065 99.7 8 103 15.8
2008-08-25 12:35:41 51°15.891 2°47.273 99.2 8 104 15.4
2008-08-25 12:36:41 51°15.864 2°47.481 100.8 8 105 15.2
2008-08-25 12:37:41 51°15.834 2°47.689 100.1 8 103 14.2
2008-08-25 12:38:41 51°15.804 2°47.898 100.6 8.1 104 13.4
2008-08-25 12:39:41 51°15.774 2°48.108 99.5 8.1 102 12.3
2008-08-25 12:40:41 51°15.743 2°48.317 100.8 8.1 103 11
2008-08-25 12:41:41 51°15.712 2°48.527 99.8 8.1 105 10.3
2008-08-25 12:42:41 51°15.683 2°48.737 100.6 8.1 103 9.8
2008-08-25 12:43:41 51°15.652 2°48.949 100.1 8.2 102 9.7
2008-08-25 12:44:41 51°15.62 2°49.16 101.4 8.2 104 10.3
2008-08-25 12:45:41 51°15.588 2°49.369 100.8 8.1 105 11.4
2008-08-25 12:46:41 51°15.556 2°49.578 100.2 8.1 103 12.2
2008-08-25 12:47:41 51°15.528 2°49.787 92.6 8 94 12.2
2008-08-25 12:48:41 51°15.524 2°49.999 89.5 8 90 12.1
2008-08-25 12:49:41 51°15.514 2°50.211 91.7 8 95 12.1
2008-08-25 12:50:41 51°15.505 2°50.423 90.9 8 93 12
2008-08-25 12:51:41 51°15.493 2°50.635 92 8 94 12
2008-08-25 12:52:41 51°15.481 2°50.848 92.5 8.1 95 11.9
2008-08-25 12:53:41 51°15.469 2°51.06 92.3 8.1 95 11.8
2008-08-25 12:54:41 51°15.448 2°51.272 100.6 8.1 106 11.7
2008-08-25 12:55:41 51°15.404 2°51.477 107.9 8.2 110 11.5
2008-08-25 12:56:41 51°15.351 2°51.677 108.3 8.1 111 11.3
2008-08-25 12:57:41 51°15.3 2°51.877 107.6 8.2 113 11.1
2008-08-25 12:58:41 51°15.25 2°52.079 107.7 8.2 109 10.7
2008-08-25 12:59:41 51°15.2 2°52.282 106.8 8.1 109 10.2
2008-08-25 13:00:41 51°15.15 2°52.484 106.7 8.2 111 9.9
2008-08-25 13:01:41 51°15.102 2°52.689 107.8 8.3 114 9.7
2008-08-25 13:02:41 51°15.052 2°52.894 107.9 8.4 112 9.5
2008-08-25 13:03:41 51°15.003 2°53.1 107.3 8.3 109 9.4
2008-08-25 13:04:41 51°14.953 2°53.306 107.3 8.4 112 9.1
2008-08-25 13:05:41 51°14.904 2°53.499 108.5 7.8 111 9.3
2008-08-25 13:06:41 51°14.854 2°53.704 108.4 8.5 112 9
2008-08-25 13:07:41 51°14.802 2°53.915 109.5 8.6 112 8.9
2008-08-25 13:08:41 51°14.743 2°54.123 114.4 8.6 118 9.3
2008-08-25 13:09:41 51°14.678 2°54.327 115.7 8.6 119 9.5
2008-08-25 13:10:41 51°14.607 2°54.526 118.8 8.6 121 9.5
2008-08-25 13:11:41 51°14.529 2°54.717 120.5 8.7 125 9.7
2008-08-25 13:12:41 51°14.443 2°54.9 123.2 8.6 126 10.1
2008-08-25 13:13:41 51°14.356 2°55.088 126.4 8.9 127 10.2
2008-08-25 13:14:41 51°14.26 2°55.264 133.2 8.7 135 9.5
2008-08-25 13:15:41 51°14.156 2°55.39 148.5 6.3 150 10.1
2008-08-25 13:16:41 51°14.07 2°55.465 153.4 5.9 154 10.1
2008-08-25 13:17:41 51°13.966 2°55.539 155.6 7.4 156 10.2
2008-08-25 13:18:45 51°13.843 2°55.627 154.5 7.6 155 -999
2008-08-25 13:19:45 51°13.752 2°55.724 133.4 5.4 134 -999
2008-08-25 13:20:45 51°13.699 2°55.823 128.4 4.7 128 -999
2008-08-25 13:21:45 51°13.655 2°55.92 121.4 4.1 123 -999
2008-08-25 13:22:45 51°13.632 2°55.999 104.7 2.6 107 -999
2008-08-25 13:23:45 51°13.624 2°56.042 113.5 0.5 110 -999